createdAt,value
2017-06-26T00:01:37.375Z,17.50
2017-06-26T00:04:04.953Z,17.50
2017-06-26T00:06:32.464Z,17.50
2017-06-26T00:09:00.499Z,17.50
2017-06-26T00:11:28.124Z,17.50
2017-06-26T00:13:55.660Z,17.50
2017-06-26T00:16:23.183Z,17.60
2017-06-26T00:18:51.569Z,17.40
2017-06-26T00:21:19.869Z,17.40
2017-06-26T00:23:47.400Z,17.40
2017-06-26T00:26:15.724Z,17.50
2017-06-26T00:28:43.249Z,17.30
2017-06-26T00:31:10.794Z,17.20
2017-06-26T00:33:38.720Z,17.30
2017-06-26T00:36:06.256Z,17.30
2017-06-26T00:38:33.792Z,17.20
2017-06-26T00:41:01.364Z,17.20
2017-06-26T00:43:29.014Z,17.20
2017-06-26T00:45:56.573Z,17.20
2017-06-26T00:48:24.175Z,17.20
2017-06-26T00:50:51.707Z,17.20
2017-06-26T00:53:19.240Z,17.20
2017-06-26T00:55:46.841Z,17.20
2017-06-26T00:58:15.238Z,17.10
2017-06-26T01:00:42.772Z,17.20
2017-06-26T01:03:10.361Z,17.10
2017-06-26T01:05:37.880Z,17.20
2017-06-26T01:08:05.415Z,17.30
2017-06-26T01:10:33.457Z,17.20
2017-06-26T01:13:00.984Z,17.20
2017-06-26T01:15:28.507Z,17.20
2017-06-26T01:17:56.083Z,17.20
2017-06-26T01:20:23.609Z,17.20
2017-06-26T01:22:51.139Z,17.20
2017-06-26T01:25:20.309Z,17.10
2017-06-26T01:27:48.130Z,17.00
2017-06-26T01:30:15.664Z,17.00
2017-06-26T01:32:43.232Z,17.00
2017-06-26T01:35:11.525Z,17.00
2017-06-26T01:37:39.049Z,17.00
2017-06-26T01:40:07.393Z,17.00
2017-06-26T01:42:34.912Z,17.00
2017-06-26T01:45:02.438Z,17.00
2017-06-26T01:47:30.012Z,17.00
2017-06-26T01:49:57.545Z,17.10
2017-06-26T01:52:25.056Z,17.10
2017-06-26T01:54:52.631Z,17.10
2017-06-26T01:57:20.163Z,17.20
2017-06-26T01:59:47.700Z,17.20
2017-06-26T02:02:16.730Z,17.20
2017-06-26T02:04:44.255Z,17.10
2017-06-26T02:07:11.792Z,17.10
2017-06-26T02:09:40.131Z,17.30
2017-06-26T02:12:07.660Z,17.20
2017-06-26T02:14:35.193Z,17.20
2017-06-26T02:17:03.524Z,17.30
2017-06-26T02:19:31.061Z,17.30
2017-06-26T02:21:58.592Z,17.30
2017-06-26T02:24:26.160Z,17.40
2017-06-26T02:26:53.781Z,17.20
2017-06-26T02:29:21.307Z,17.20
2017-06-26T02:31:48.872Z,17.00
2017-06-26T02:34:16.393Z,17.10
2017-06-26T02:36:44.747Z,16.80
2017-06-26T02:39:13.196Z,16.60
2017-06-26T02:41:40.723Z,16.60
2017-06-26T02:44:08.236Z,16.50
2017-06-26T02:46:35.803Z,16.50
2017-06-26T02:49:04.100Z,16.50
2017-06-26T02:51:31.636Z,16.50
2017-06-26T02:53:59.195Z,16.70
2017-06-26T02:56:26.720Z,16.60
2017-06-26T02:58:54.519Z,16.50
2017-06-26T03:01:22.097Z,16.60
2017-06-26T03:03:49.639Z,16.60
2017-06-26T03:06:17.177Z,16.70
2017-06-26T03:08:44.750Z,16.60
2017-06-26T03:11:12.951Z,16.70
2017-06-26T03:13:40.472Z,16.60
2017-06-26T03:16:08.800Z,16.40
2017-06-26T03:18:36.323Z,16.30
2017-06-26T03:21:03.839Z,16.30
2017-06-26T03:23:31.420Z,16.30
2017-06-26T03:25:59.724Z,16.40
2017-06-26T03:28:27.252Z,16.30
2017-06-26T03:30:55.580Z,16.40
2017-06-26T03:33:23.100Z,16.30
2017-06-26T03:35:50.616Z,16.50
2017-06-26T03:38:18.175Z,16.50
2017-06-26T03:40:45.703Z,16.60
2017-06-26T03:43:13.240Z,16.50
2017-06-26T03:45:40.802Z,16.50
2017-06-26T03:48:08.320Z,16.70
2017-06-26T03:50:37.443Z,16.70
2017-06-26T03:53:05.016Z,16.60
2017-06-26T03:55:32.549Z,16.40
2017-06-26T03:58:00.096Z,16.50
2017-06-26T04:00:28.447Z,16.50
2017-06-26T04:02:55.977Z,16.40
2017-06-26T04:05:23.508Z,16.70
2017-06-26T04:07:51.072Z,16.70
2017-06-26T04:10:18.597Z,16.70
2017-06-26T04:12:46.111Z,16.70
2017-06-26T04:15:13.687Z,16.80
2017-06-26T04:17:41.215Z,16.90
2017-06-26T04:20:08.745Z,16.70
2017-06-26T04:22:36.332Z,16.70
2017-06-26T04:25:03.867Z,16.80
2017-06-26T04:27:31.459Z,17.00
2017-06-26T04:29:59.036Z,17.10
2017-06-26T04:32:26.552Z,17.10
2017-06-26T04:34:54.080Z,17.30
2017-06-26T04:37:21.640Z,17.30
2017-06-26T04:39:49.183Z,17.50
2017-06-26T04:42:16.707Z,17.80
2017-06-26T04:44:44.566Z,18.10
2017-06-26T04:47:12.087Z,18.20
2017-06-26T04:49:40.414Z,18.30
2017-06-26T04:52:07.994Z,18.30
2017-06-26T04:54:36.168Z,18.50
2017-06-26T04:57:04.148Z,18.50
2017-06-26T04:59:32.490Z,18.40
2017-06-26T05:02:00.006Z,18.40
2017-06-26T05:04:27.536Z,18.50
2017-06-26T05:06:55.888Z,18.40
2017-06-26T05:09:23.424Z,18.40
2017-06-26T05:11:50.969Z,18.40
2017-06-26T05:14:18.544Z,18.60
2017-06-26T05:16:46.072Z,18.30
2017-06-26T05:19:13.605Z,18.20
2017-06-26T05:21:41.191Z,18.50
2017-06-26T05:24:08.724Z,18.90
2017-06-26T05:26:36.280Z,18.70
2017-06-26T05:29:04.623Z,18.80
2017-06-26T05:31:32.135Z,18.80
2017-06-26T05:34:00.289Z,18.90
2017-06-26T05:36:28.627Z,19.40
2017-06-26T05:38:56.147Z,19.40
2017-06-26T05:41:23.713Z,19.80
2017-06-26T05:43:51.320Z,20.10
2017-06-26T05:46:18.914Z,20.20
2017-06-26T05:48:46.470Z,20.40
2017-06-26T05:51:14.044Z,20.60
2017-06-26T05:53:41.589Z,21.00
2017-06-26T05:56:09.132Z,21.10
2017-06-26T05:58:37.548Z,21.40
2017-06-26T06:01:05.146Z,21.30
2017-06-26T06:03:32.675Z,21.50
2017-06-26T06:06:00.263Z,21.70
2017-06-26T06:08:27.799Z,21.70
2017-06-26T06:10:55.327Z,21.80
2017-06-26T06:13:22.904Z,21.80
2017-06-26T06:15:50.440Z,22.00
2017-06-26T06:18:17.972Z,22.30
2017-06-26T06:20:46.316Z,22.70
2017-06-26T06:23:13.877Z,22.60
2017-06-26T06:25:41.412Z,22.80
2017-06-26T06:28:08.981Z,22.80
2017-06-26T06:30:36.518Z,22.60
2017-06-26T06:33:04.048Z,22.60
2017-06-26T06:35:31.608Z,22.80
2017-06-26T06:37:59.148Z,22.80
2017-06-26T06:40:27.459Z,22.90
2017-06-26T06:42:55.041Z,22.90
2017-06-26T06:45:22.564Z,23.10
2017-06-26T06:47:50.107Z,23.00
2017-06-26T06:50:18.457Z,22.90
2017-06-26T06:52:45.983Z,22.80
2017-06-26T06:55:13.510Z,23.30
2017-06-26T06:57:41.094Z,23.70
2017-06-26T07:00:08.624Z,24.00
2017-06-26T07:02:36.181Z,24.10
2017-06-26T07:05:03.776Z,24.30
2017-06-26T07:07:32.604Z,24.20
2017-06-26T07:10:00.344Z,24.40
2017-06-26T07:12:28.049Z,24.40
2017-06-26T07:14:55.590Z,24.40
2017-06-26T07:17:23.898Z,24.40
2017-06-26T07:19:51.474Z,24.40
2017-06-26T07:22:19.301Z,24.70
2017-06-26T07:24:47.607Z,25.30
2017-06-26T07:27:15.188Z,25.20
2017-06-26T07:29:42.712Z,25.40
2017-06-26T07:32:10.238Z,25.40
2017-06-26T07:34:38.596Z,25.70
2017-06-26T07:37:06.211Z,25.60
2017-06-26T07:39:33.747Z,25.70
2017-06-26T07:42:01.316Z,25.90
2017-06-26T07:44:28.842Z,26.00
2017-06-26T07:46:57.139Z,26.20
2017-06-26T07:49:24.699Z,26.10
2017-06-26T07:51:52.228Z,26.30
2017-06-26T07:54:19.752Z,26.60
2017-06-26T07:56:47.316Z,26.50
2017-06-26T07:59:14.844Z,26.60
2017-06-26T08:01:42.380Z,26.50
2017-06-26T08:04:10.710Z,26.30
2017-06-26T08:06:38.224Z,26.20
2017-06-26T08:09:05.755Z,26.50
2017-06-26T08:11:33.323Z,26.40
2017-06-26T08:14:01.610Z,27.10
2017-06-26T08:16:29.418Z,27.00
2017-06-26T08:18:56.988Z,27.40
2017-06-26T08:21:24.508Z,27.50
2017-06-26T08:23:52.056Z,27.70
2017-06-26T08:26:19.652Z,27.90
2017-06-26T08:28:47.178Z,28.00
2017-06-26T08:31:20.134Z,28.10
2017-06-26T08:33:47.679Z,28.30
2017-06-26T08:36:15.225Z,28.40
2017-06-26T08:38:42.792Z,28.30
2017-06-26T08:41:10.328Z,28.20
2017-06-26T08:43:37.856Z,28.40
2017-06-26T08:46:05.429Z,28.60
2017-06-26T08:48:32.965Z,28.80
2017-06-26T08:51:00.488Z,28.80
2017-06-26T08:53:28.822Z,28.80
2017-06-26T08:55:56.348Z,28.80
2017-06-26T08:58:23.879Z,29.00
2017-06-26T09:00:51.463Z,29.00
2017-06-26T09:03:19.884Z,29.10
2017-06-26T09:05:47.413Z,29.00
2017-06-26T09:08:15.066Z,29.10
2017-06-26T09:10:42.605Z,28.90
2017-06-26T09:13:10.170Z,29.10
2017-06-26T09:15:37.776Z,29.30
2017-06-26T09:18:05.292Z,28.70
2017-06-26T09:20:32.992Z,28.40
2017-06-26T09:23:00.584Z,28.40
2017-06-26T09:25:28.114Z,28.40
2017-06-26T09:27:55.640Z,28.90
2017-06-26T09:30:23.209Z,29.30
2017-06-26T09:32:50.728Z,29.50
2017-06-26T09:35:19.041Z,29.80
2017-06-26T09:37:46.600Z,29.70
2017-06-26T09:40:14.128Z,29.90
2017-06-26T09:42:41.648Z,29.70
2017-06-26T09:45:09.212Z,29.60
2017-06-26T09:47:36.746Z,29.80
2017-06-26T09:50:04.300Z,29.90
2017-06-26T09:52:31.860Z,30.10
2017-06-26T09:54:59.393Z,30.10
2017-06-26T09:57:26.919Z,30.50
2017-06-26T09:59:54.479Z,30.60
2017-06-26T10:02:22.765Z,30.70
2017-06-26T10:04:50.284Z,30.70
2017-06-26T10:07:17.876Z,30.80
2017-06-26T10:09:45.384Z,30.90
2017-06-26T10:12:12.896Z,31.10
2017-06-26T10:14:41.270Z,31.20
2017-06-26T10:17:08.800Z,31.00
2017-06-26T10:19:36.344Z,31.20
2017-06-26T10:22:04.828Z,31.20
2017-06-26T10:24:32.345Z,31.10
2017-06-26T10:26:59.864Z,31.30
2017-06-26T10:29:27.436Z,31.20
2017-06-26T10:31:54.968Z,31.30
2017-06-26T10:34:22.512Z,31.40
2017-06-26T10:36:50.089Z,31.60
2017-06-26T10:39:18.377Z,31.60
2017-06-26T10:41:46.684Z,31.60
2017-06-26T10:44:14.256Z,31.50
2017-06-26T10:46:41.777Z,31.70
2017-06-26T10:49:09.296Z,31.80
2017-06-26T10:51:37.231Z,31.70
2017-06-26T10:54:04.748Z,32.10
2017-06-26T10:56:33.039Z,32.20
2017-06-26T10:59:00.597Z,32.10
2017-06-26T11:01:28.127Z,32.30
2017-06-26T11:03:56.412Z,32.50
2017-06-26T11:06:24.742Z,32.70
2017-06-26T11:08:52.280Z,32.60
2017-06-26T11:11:19.803Z,32.80
2017-06-26T11:13:47.371Z,32.60
2017-06-26T11:16:14.895Z,32.70
2017-06-26T11:18:42.420Z,32.90
2017-06-26T11:21:09.970Z,33.00
2017-06-26T11:23:37.496Z,33.00
2017-06-26T11:26:05.825Z,33.10
2017-06-26T11:28:33.347Z,33.00
2017-06-26T11:31:00.882Z,32.80
2017-06-26T11:33:28.456Z,32.70
2017-06-26T11:35:55.988Z,32.70
2017-06-26T11:38:23.729Z,32.80
2017-06-26T11:40:51.291Z,33.00
2017-06-26T11:43:18.813Z,33.10
2017-06-26T11:45:46.349Z,33.30
2017-06-26T11:48:13.948Z,33.40
2017-06-26T11:50:41.467Z,33.30
2017-06-26T11:53:08.988Z,33.20
2017-06-26T11:55:36.563Z,33.30
2017-06-26T11:58:04.076Z,33.40
2017-06-26T12:00:31.611Z,33.50
2017-06-26T12:02:59.175Z,33.50
2017-06-26T12:05:26.704Z,33.40
2017-06-26T12:07:54.236Z,33.30
2017-06-26T12:10:23.348Z,33.60
2017-06-26T12:12:50.910Z,33.50
2017-06-26T12:15:18.444Z,33.60
2017-06-26T12:17:46.017Z,33.40
2017-06-26T12:20:13.540Z,33.30
2017-06-26T12:22:41.071Z,33.40
2017-06-26T12:25:08.639Z,33.30
2017-06-26T12:27:36.156Z,33.20
2017-06-26T12:30:03.688Z,33.10
2017-06-26T12:32:32.033Z,32.00
2017-06-26T12:34:59.552Z,31.90
2017-06-26T12:37:27.085Z,32.00
2017-06-26T12:39:54.659Z,32.20
2017-06-26T12:42:23.508Z,32.40
2017-06-26T12:44:51.824Z,32.40
2017-06-26T12:47:21.183Z,32.30
2017-06-26T12:49:48.717Z,32.30
2017-06-26T12:52:16.246Z,32.20
2017-06-26T12:54:43.805Z,32.10
2017-06-26T12:57:11.319Z,31.80
2017-06-26T12:59:38.844Z,31.60
2017-06-26T13:02:06.408Z,31.50
2017-06-26T13:04:33.937Z,31.40
2017-06-26T13:07:01.485Z,31.30
2017-06-26T13:09:29.816Z,31.00
2017-06-26T13:11:57.353Z,31.00
2017-06-26T13:14:24.865Z,30.90
2017-06-26T13:16:53.217Z,30.50
2017-06-26T13:19:20.725Z,30.50
2017-06-26T13:21:48.263Z,30.40
2017-06-26T13:24:16.790Z,30.30
2017-06-26T13:26:44.360Z,30.30
2017-06-26T13:29:11.890Z,30.30
2017-06-26T13:31:39.468Z,30.30
2017-06-26T13:34:07.332Z,30.30
2017-06-26T13:36:34.847Z,30.30
2017-06-26T13:39:02.439Z,30.00
2017-06-26T13:41:29.961Z,29.80
2017-06-26T13:43:57.475Z,29.90
2017-06-26T13:46:25.044Z,29.90
2017-06-26T13:48:52.567Z,29.80
2017-06-26T13:51:20.079Z,29.80
2017-06-26T13:53:47.686Z,29.70
2017-06-26T13:56:15.199Z,29.60
2017-06-26T13:58:42.724Z,29.50
2017-06-26T14:01:10.285Z,29.50
2017-06-26T14:03:37.813Z,29.60
2017-06-26T14:06:05.340Z,29.80
2017-06-26T14:08:32.917Z,29.70
2017-06-26T14:11:00.433Z,29.70
2017-06-26T14:13:28.728Z,29.70
2017-06-26T14:15:56.293Z,29.60
2017-06-26T14:18:23.821Z,29.80
2017-06-26T14:20:51.339Z,29.70
2017-06-26T14:23:18.900Z,29.60
2017-06-26T14:25:46.420Z,29.60
2017-06-26T14:28:13.972Z,29.50
2017-06-26T14:30:42.251Z,29.60
2017-06-26T14:33:09.797Z,29.60
2017-06-26T14:35:38.129Z,29.60
2017-06-26T14:38:05.664Z,29.50
2017-06-26T14:40:33.762Z,29.60
2017-06-26T14:43:01.323Z,29.50
2017-06-26T14:45:28.860Z,29.60
2017-06-26T14:47:56.706Z,29.40
2017-06-26T14:50:24.277Z,29.20
2017-06-26T14:52:51.799Z,29.20
2017-06-26T14:55:20.083Z,29.30
2017-06-26T14:57:47.667Z,29.30
2017-06-26T15:00:15.192Z,29.30
2017-06-26T15:02:42.736Z,29.20
2017-06-26T15:05:11.072Z,29.20
2017-06-26T15:07:38.604Z,29.10
2017-06-26T15:10:06.136Z,29.20
2017-06-26T15:12:33.701Z,29.20
2017-06-26T15:15:01.229Z,29.20
2017-06-26T15:17:28.748Z,29.20
2017-06-26T15:19:56.309Z,29.00
2017-06-26T15:22:23.828Z,28.90
2017-06-26T15:24:51.372Z,29.00
2017-06-26T15:27:19.711Z,29.00
2017-06-26T15:29:47.244Z,28.90
2017-06-26T15:32:14.771Z,28.90
2017-06-26T15:34:43.103Z,28.50
2017-06-26T15:37:10.632Z,28.50
2017-06-26T15:39:38.156Z,28.60
2017-06-26T15:42:05.737Z,28.80
2017-06-26T15:44:33.282Z,28.80
2017-06-26T15:47:01.587Z,28.80
2017-06-26T15:49:29.151Z,28.70
2017-06-26T15:51:56.680Z,28.70
2017-06-26T15:54:24.198Z,28.60
2017-06-26T15:56:51.775Z,28.60
2017-06-26T15:59:20.056Z,28.50
2017-06-26T16:01:48.350Z,28.50
2017-06-26T16:04:15.935Z,28.50
2017-06-26T16:06:43.463Z,28.40
2017-06-26T16:09:10.988Z,28.30
2017-06-26T16:11:38.572Z,28.40
2017-06-26T16:14:06.100Z,28.30
2017-06-26T16:16:33.643Z,28.30
2017-06-26T16:19:01.204Z,28.30
2017-06-26T16:21:28.729Z,28.30
2017-06-26T16:23:56.279Z,28.20
2017-06-26T16:26:23.873Z,28.10
2017-06-26T16:28:51.409Z,28.20
2017-06-26T16:31:18.936Z,28.30
2017-06-26T16:33:46.544Z,28.40
2017-06-26T16:36:14.076Z,28.50
2017-06-26T16:38:41.591Z,28.40
2017-06-26T16:41:09.928Z,28.50
2017-06-26T16:43:37.440Z,28.40
2017-06-26T16:46:04.979Z,28.40
2017-06-26T16:48:32.544Z,28.40
2017-06-26T16:51:00.823Z,28.40
2017-06-26T16:53:28.360Z,28.40
2017-06-26T16:55:55.946Z,28.30
2017-06-26T16:58:24.353Z,28.20
2017-06-26T17:00:52.649Z,28.30
2017-06-26T17:03:20.211Z,28.30
2017-06-26T17:05:47.728Z,28.40
2017-06-26T17:08:15.253Z,28.30
2017-06-26T17:10:42.846Z,28.40
2017-06-26T17:13:10.391Z,28.40
2017-06-26T17:15:37.927Z,28.40
2017-06-26T17:18:06.272Z,28.30
2017-06-26T17:20:33.792Z,28.20
2017-06-26T17:23:01.323Z,28.40
2017-06-26T17:25:28.900Z,28.20
2017-06-26T17:27:56.420Z,28.20
2017-06-26T17:30:23.945Z,28.20
2017-06-26T17:32:51.515Z,28.30
2017-06-26T17:35:19.027Z,28.30
2017-06-26T17:37:46.552Z,28.20
2017-06-26T17:40:14.116Z,28.00
2017-06-26T17:42:41.637Z,27.90
2017-06-26T17:45:09.168Z,27.90
2017-06-26T17:47:36.752Z,27.90
2017-06-26T17:50:04.286Z,27.80
2017-06-26T17:52:31.846Z,27.90
2017-06-26T17:54:59.419Z,27.80
2017-06-26T17:57:26.932Z,27.70
2017-06-26T17:59:55.220Z,27.80
2017-06-26T18:02:22.779Z,27.70
2017-06-26T18:04:50.300Z,27.80
2017-06-26T18:07:17.903Z,27.70
2017-06-26T18:09:45.428Z,27.60
2017-06-26T18:12:12.952Z,27.50
2017-06-26T18:14:40.519Z,27.40
2017-06-26T18:17:08.055Z,27.40
2017-06-26T18:19:35.609Z,27.30
2017-06-26T18:22:03.232Z,27.20
2017-06-26T18:24:30.764Z,27.10
2017-06-26T18:26:58.344Z,27.10
2017-06-26T18:29:26.713Z,27.20
2017-06-26T18:31:55.038Z,27.10
2017-06-26T18:34:22.577Z,27.10
2017-06-26T18:36:50.149Z,27.10
2017-06-26T18:39:17.693Z,26.90
2017-06-26T18:41:45.209Z,26.90
2017-06-26T18:44:12.792Z,26.80
2017-06-26T18:46:41.072Z,26.80
2017-06-26T18:49:08.611Z,26.70
2017-06-26T18:51:36.968Z,26.70
2017-06-26T18:54:04.495Z,26.60
2017-06-26T18:56:32.014Z,26.80
2017-06-26T18:59:00.348Z,26.30
2017-06-26T19:01:27.876Z,26.30
2017-06-26T19:03:55.391Z,26.20
2017-06-26T19:06:23.718Z,25.90
2017-06-26T19:08:51.231Z,25.90
2017-06-26T19:11:18.744Z,25.90
2017-06-26T19:13:46.351Z,25.80
2017-06-26T19:16:13.875Z,25.80
2017-06-26T19:18:41.413Z,25.90
2017-06-26T19:21:08.976Z,25.80
2017-06-26T19:23:36.521Z,25.60
2017-06-26T19:26:04.031Z,25.30
2017-06-26T19:28:32.355Z,25.00
2017-06-26T19:30:59.872Z,24.90
2017-06-26T19:33:28.161Z,24.90
2017-06-26T19:35:55.719Z,24.90
2017-06-26T19:38:23.246Z,24.90
2017-06-26T19:40:50.777Z,24.70
2017-06-26T19:43:18.330Z,24.50
2017-06-26T19:45:45.852Z,24.30
2017-06-26T19:48:13.391Z,24.30
2017-06-26T19:50:40.966Z,24.20
2017-06-26T19:53:08.498Z,24.10
2017-06-26T19:55:36.799Z,23.90
2017-06-26T19:58:04.406Z,23.80
2017-06-26T20:00:31.929Z,23.90
2017-06-26T20:02:59.448Z,23.90
2017-06-26T20:05:27.784Z,23.60
2017-06-26T20:07:55.311Z,23.60
2017-06-26T20:10:22.839Z,23.60
2017-06-26T20:12:51.187Z,23.70
2017-06-26T20:15:18.718Z,23.60
2017-06-26T20:17:46.244Z,23.60
2017-06-26T20:20:14.556Z,23.40
2017-06-26T20:22:42.087Z,23.40
2017-06-26T20:25:09.652Z,23.40
2017-06-26T20:27:37.192Z,23.40
2017-06-26T20:30:04.720Z,23.30
2017-06-26T20:32:32.285Z,23.20
2017-06-26T20:34:59.809Z,23.10
2017-06-26T20:37:27.334Z,23.10
2017-06-26T20:39:54.909Z,23.10
2017-06-26T20:42:22.434Z,22.90
2017-06-26T20:44:49.963Z,22.90
2017-06-26T20:47:17.560Z,22.90
2017-06-26T20:49:45.136Z,23.00
2017-06-26T20:52:12.660Z,23.20
2017-06-26T20:54:40.248Z,23.20
2017-06-26T20:57:07.768Z,23.30
2017-06-26T20:59:36.056Z,23.10
2017-06-26T21:02:03.627Z,23.00
2017-06-26T21:04:31.147Z,23.10
2017-06-26T21:06:58.664Z,23.20
2017-06-26T21:09:26.227Z,23.50
2017-06-26T21:11:53.762Z,23.50
2017-06-26T21:14:21.291Z,23.50
2017-06-26T21:16:49.652Z,23.00
2017-06-26T21:19:17.184Z,23.00
2017-06-26T21:21:44.708Z,23.10
2017-06-26T21:24:12.280Z,23.20
2017-06-26T21:26:39.796Z,23.20
2017-06-26T21:29:08.084Z,22.80
2017-06-26T21:31:36.419Z,22.50
2017-06-26T21:34:03.928Z,22.50
2017-06-26T21:36:31.447Z,22.40
2017-06-26T21:38:59.012Z,22.30
2017-06-26T21:41:26.540Z,22.20
2017-06-26T21:43:54.064Z,22.10
2017-06-26T21:46:21.632Z,22.10
2017-06-26T21:48:49.155Z,22.10
2017-06-26T21:51:17.451Z,22.10
2017-06-26T21:53:45.035Z,22.00
2017-06-26T21:56:12.565Z,21.90
2017-06-26T21:58:40.100Z,21.60
2017-06-26T22:01:08.470Z,21.60
2017-06-26T22:03:35.997Z,21.50
2017-06-26T22:06:03.554Z,21.70
2017-06-26T22:08:31.115Z,21.70
2017-06-26T22:10:58.668Z,21.30
2017-06-26T22:13:26.203Z,21.10
2017-06-26T22:15:53.766Z,21.00
2017-06-26T22:18:21.292Z,21.10
2017-06-26T22:20:48.809Z,21.20
2017-06-26T22:23:16.372Z,20.70
2017-06-26T22:25:43.884Z,20.40
2017-06-26T22:28:11.411Z,20.10
2017-06-26T22:30:39.308Z,19.90
2017-06-26T22:33:06.836Z,19.90
2017-06-26T22:35:35.115Z,19.60
2017-06-26T22:38:03.447Z,19.50
2017-06-26T22:40:30.961Z,19.50
2017-06-26T22:42:58.471Z,19.50
2017-06-26T22:45:26.042Z,19.30
2017-06-26T22:47:53.568Z,18.80
2017-06-26T22:50:21.852Z,18.60
2017-06-26T22:52:49.412Z,18.60
2017-06-26T22:55:16.943Z,18.60
2017-06-26T22:57:44.456Z,18.60
2017-06-26T23:00:12.009Z,18.50
2017-06-26T23:02:39.527Z,18.50
2017-06-26T23:05:07.083Z,18.60
2017-06-26T23:07:34.629Z,18.70
2017-06-26T23:10:02.147Z,18.80
2017-06-26T23:12:30.503Z,18.80
2017-06-26T23:14:58.012Z,18.70
2017-06-26T23:17:25.535Z,18.50
2017-06-26T23:19:53.103Z,18.40
2017-06-26T23:22:21.172Z,18.50
2017-06-26T23:24:48.703Z,18.40
2017-06-26T23:27:17.212Z,18.60
2017-06-26T23:29:45.521Z,18.90
2017-06-26T23:32:13.052Z,18.80
2017-06-26T23:34:40.617Z,18.80
2017-06-26T23:37:08.147Z,18.60
2017-06-26T23:39:35.660Z,18.30
2017-06-26T23:42:03.215Z,18.30
2017-06-26T23:44:30.785Z,18.50
2017-06-26T23:46:58.324Z,18.60
2017-06-26T23:49:25.896Z,18.80
2017-06-26T23:51:53.459Z,18.70
2017-06-26T23:54:24.102Z,18.90
2017-06-26T23:56:51.681Z,19.00
2017-06-26T23:59:19.973Z,18.60
